Time,TemperatureF,DewpointF,PressureIn,WindDirection,WindDirectionDegrees,WindSpeedMPH,WindSpeedGustMPH,Humidity,HourlyPrecipIn,Conditions,Clouds,dailyrainin,SoftwareType,DateUTC
2013-09-21 00:02:00,38.8,36.1,29.95,NW,323,0.0,0.0,90,0.00,,,0.00,Wunderground v.1.15,2013-09-21 05:02:00,
2013-09-21 00:08:00,38.6,35.9,29.95,NW,323,0.0,0.0,90,0.00,,,0.00,Wunderground v.1.15,2013-09-21 05:08:00,
2013-09-21 00:14:00,38.5,35.8,29.95,NW,323,0.0,0.0,90,0.00,,,0.00,Wunderground v.1.15,2013-09-21 05:14:00,
2013-09-21 00:20:00,38.2,35.5,29.95,NW,323,0.0,0.0,90,0.00,,,0.00,Wunderground v.1.15,2013-09-21 05:20:00,
2013-09-21 00:25:00,38.0,35.3,29.95,NW,323,0.0,0.0,90,0.00,,,0.00,Wunderground v.1.15,2013-09-21 05:25:00,
2013-09-21 00:31:00,38.0,35.3,29.95,NW,323,0.0,0.0,90,0.00,,,0.00,Wunderground v.1.15,2013-09-21 05:31:00,
2013-09-21 00:36:00,37.9,35.2,29.95,NW,323,0.0,0.0,90,0.00,,,0.00,Wunderground v.1.15,2013-09-21 05:36:00,
2013-09-21 00:42:00,38.0,35.6,29.95,NW,323,0.0,0.0,91,0.00,,,0.00,Wunderground v.1.15,2013-09-21 05:42:00,
2013-09-21 00:48:00,38.1,35.4,29.95,NW,323,0.0,0.0,90,0.00,,,0.00,Wunderground v.1.15,2013-09-21 05:48:00,
2013-09-21 00:54:00,38.1,35.7,29.95,NW,323,0.0,0.0,91,0.00,,,0.00,Wunderground v.1.15,2013-09-21 05:54:00,
2013-09-21 01:00:00,37.5,34.8,29.95,NW,323,0.0,0.0,90,0.00,,,0.00,Wunderground v.1.15,2013-09-21 06:00:00,
2013-09-21 01:06:00,37.0,34.3,29.95,NW,323,0.0,0.0,90,0.00,,,0.00,Wunderground v.1.15,2013-09-21 06:06:00,
2013-09-21 01:11:00,37.0,34.3,29.95,NW,323,0.0,0.0,90,0.00,,,0.00,Wunderground v.1.15,2013-09-21 06:11:00,
2013-09-21 01:17:00,37.2,34.5,29.95,NW,323,0.0,0.0,90,0.00,,,0.00,Wunderground v.1.15,2013-09-21 06:17:00,
2013-09-21 01:23:00,37.4,35.0,29.95,NW,323,0.0,0.0,91,0.00,,,0.00,Wunderground v.1.15,2013-09-21 06:23:00,
2013-09-21 01:29:00,37.6,35.2,29.95,NW,323,0.0,0.0,91,0.00,,,0.00,Wunderground v.1.15,2013-09-21 06:29:00,
2013-09-21 01:35:00,37.7,35.3,29.96,NW,323,0.0,0.0,91,0.00,,,0.00,Wunderground v.1.15,2013-09-21 06:35:00,
2013-09-21 01:41:00,37.6,35.2,29.96,NW,323,0.0,0.0,91,0.00,,,0.00,Wunderground v.1.15,2013-09-21 06:41:00,
2013-09-21 01:46:00,37.7,35.3,29.96,NW,323,0.0,0.0,91,0.00,,,0.00,Wunderground v.1.15,2013-09-21 06:46:00,
2013-09-21 01:52:00,37.8,35.4,29.96,NW,323,0.0,0.0,91,0.00,,,0.00,Wunderground v.1.15,2013-09-21 06:52:00,
2013-09-21 01:58:00,37.7,35.3,29.96,NW,323,0.0,0.0,91,0.00,,,0.00,Wunderground v.1.15,2013-09-21 06:58:00,
2013-09-21 02:03:00,37.8,35.4,29.96,NW,323,0.0,0.0,91,0.00,,,0.00,Wunderground v.1.15,2013-09-21 07:03:00,
2013-09-21 02:08:00,37.8,35.4,29.96,NW,323,0.0,0.0,91,0.00,,,0.00,Wunderground v.1.15,2013-09-21 07:08:00,
2013-09-21 02:13:00,37.7,35.3,29.96,NW,323,0.0,0.0,91,0.00,,,0.00,Wunderground v.1.15,2013-09-21 07:13:00,
2013-09-21 02:18:00,37.7,35.3,29.96,NW,323,0.0,0.0,91,0.00,,,0.00,Wunderground v.1.15,2013-09-21 07:18:00,
2013-09-21 02:23:00,37.7,35.3,29.96,NW,323,0.0,0.0,91,0.00,,,0.00,Wunderground v.1.15,2013-09-21 07:23:00,
2013-09-21 02:28:00,37.6,35.2,29.96,NW,323,0.0,0.0,91,0.00,,,0.00,Wunderground v.1.15,2013-09-21 07:28:00,
2013-09-21 02:33:00,37.4,35.0,29.96,NW,323,0.0,0.0,91,0.00,,,0.00,Wunderground v.1.15,2013-09-21 07:33:00,
2013-09-21 02:38:00,37.1,34.7,29.96,NW,323,0.0,0.0,91,0.00,,,0.00,Wunderground v.1.15,2013-09-21 07:38:00,
2013-09-21 02:43:00,37.0,34.6,29.96,NW,323,0.0,0.0,91,0.00,,,0.00,Wunderground v.1.15,2013-09-21 07:43:00,
2013-09-21 02:48:00,37.0,34.6,29.96,NW,323,0.0,0.0,91,0.00,,,0.00,Wunderground v.1.15,2013-09-21 07:48:00,
2013-09-21 02:53:00,36.9,34.5,29.96,NW,323,0.0,0.0,91,0.00,,,0.00,Wunderground v.1.15,2013-09-21 07:53:00,
2013-09-21 02:58:00,37.1,34.7,29.96,NW,323,0.0,0.0,91,0.00,,,0.00,Wunderground v.1.15,2013-09-21 07:58:00,
2013-09-21 03:03:00,37.2,34.8,29.96,NW,323,0.0,0.0,91,0.00,,,0.00,Wunderground v.1.15,2013-09-21 08:03:00,
2013-09-21 03:08:00,37.3,34.9,29.96,NW,323,0.0,0.0,91,0.00,,,0.00,Wunderground v.1.15,2013-09-21 08:08:00,
2013-09-21 03:13:00,37.3,34.9,29.96,NW,323,0.0,0.0,91,0.00,,,0.00,Wunderground v.1.15,2013-09-21 08:13:00,
2013-09-21 03:18:00,37.3,34.9,29.95,NW,323,0.0,0.0,91,0.00,,,0.00,Wunderground v.1.15,2013-09-21 08:18:00,
2013-09-21 03:23:00,37.3,34.9,29.95,NW,323,0.0,0.0,91,0.00,,,0.00,Wunderground v.1.15,2013-09-21 08:23:00,
2013-09-21 03:28:00,37.3,34.9,29.95,NW,323,0.0,0.0,91,0.00,,,0.00,Wunderground v.1.15,2013-09-21 08:28:00,
2013-09-21 03:33:00,37.3,34.9,29.95,NW,323,0.0,0.0,91,0.00,,,0.00,Wunderground v.1.15,2013-09-21 08:33:00,
2013-09-21 03:38:00,37.4,35.0,29.95,NW,323,0.0,0.0,91,0.00,,,0.00,Wunderground v.1.15,2013-09-21 08:38:00,
2013-09-21 03:44:00,37.3,34.9,29.95,NW,323,0.0,0.0,91,0.00,,,0.00,Wunderground v.1.15,2013-09-21 08:44:00,
2013-09-21 03:49:00,37.3,34.9,29.95,NW,323,0.0,0.0,91,0.00,,,0.00,Wunderground v.1.15,2013-09-21 08:49:00,
2013-09-21 03:54:00,37.4,35.0,29.95,NW,323,0.0,0.0,91,0.00,,,0.00,Wunderground v.1.15,2013-09-21 08:54:00,
2013-09-21 03:59:00,37.5,35.1,29.95,NW,323,0.0,0.0,91,0.00,,,0.00,Wunderground v.1.15,2013-09-21 08:59:00,
2013-09-21 04:04:00,37.6,35.2,29.95,NW,323,0.0,0.0,91,0.00,,,0.00,Wunderground v.1.15,2013-09-21 09:04:00,
2013-09-21 04:09:00,37.5,35.1,29.95,NW,323,0.0,0.0,91,0.00,,,0.00,Wunderground v.1.15,2013-09-21 09:09:00,
2013-09-21 04:14:00,37.4,35.0,29.96,NW,323,0.0,0.0,91,0.00,,,0.00,Wunderground v.1.15,2013-09-21 09:14:00,
2013-09-21 04:19:00,37.3,34.9,29.96,NW,323,0.0,0.0,91,0.00,,,0.00,Wunderground v.1.15,2013-09-21 09:19:00,
2013-09-21 04:24:00,37.1,34.7,29.96,NW,323,0.0,0.0,91,0.00,,,0.00,Wunderground v.1.15,2013-09-21 09:24:00,
2013-09-21 04:29:00,37.2,34.8,29.96,NW,323,0.0,1.0,91,0.00,,,0.00,Wunderground v.1.15,2013-09-21 09:29:00,
2013-09-21 04:34:00,37.2,34.8,29.96,NW,323,0.0,2.0,91,0.00,,,0.00,Wunderground v.1.15,2013-09-21 09:34:00,
2013-09-21 04:39:00,37.1,34.7,29.96,NW,323,0.0,2.0,91,0.00,,,0.00,Wunderground v.1.15,2013-09-21 09:39:00,
2013-09-21 04:44:00,36.9,34.5,29.96,NW,323,0.0,2.0,91,0.00,,,0.00,Wunderground v.1.15,2013-09-21 09:44:00,
2013-09-21 04:50:00,36.6,34.2,29.96,NW,323,0.0,2.0,91,0.00,,,0.00,Wunderground v.1.15,2013-09-21 09:50:00,
2013-09-21 04:55:00,36.6,34.2,29.96,NW,323,1.0,1.0,91,0.00,,,0.00,Wunderground v.1.15,2013-09-21 09:55:00,
2013-09-21 05:00:00,36.9,34.5,29.96,NW,323,0.0,0.0,91,0.00,,,0.00,Wunderground v.1.15,2013-09-21 10:00:00,
2013-09-21 05:05:00,37.0,34.6,29.96,NW,323,0.0,0.0,91,0.00,,,0.00,Wunderground v.1.15,2013-09-21 10:05:00,
2013-09-21 05:10:00,37.0,34.6,29.96,NW,323,0.0,0.0,91,0.00,,,0.00,Wunderground v.1.15,2013-09-21 10:10:00,
2013-09-21 05:15:00,36.8,34.4,29.96,NW,323,0.0,0.0,91,0.00,,,0.00,Wunderground v.1.15,2013-09-21 10:15:00,
2013-09-21 05:20:00,36.4,34.0,29.96,NW,323,0.0,0.0,91,0.00,,,0.00,Wunderground v.1.15,2013-09-21 10:20:00,
2013-09-21 05:25:00,36.2,33.8,29.96,NW,323,0.0,0.0,91,0.00,,,0.00,Wunderground v.1.15,2013-09-21 10:25:00,
2013-09-21 05:30:00,36.0,33.6,29.96,NW,323,0.0,0.0,91,0.00,,,0.00,Wunderground v.1.15,2013-09-21 10:30:00,
2013-09-21 05:35:00,35.4,33.0,29.96,NW,323,0.0,0.0,91,0.00,,,0.00,Wunderground v.1.15,2013-09-21 10:35:00,
2013-09-21 05:40:00,34.5,32.1,29.96,NW,323,0.0,0.0,91,0.00,,,0.00,Wunderground v.1.15,2013-09-21 10:40:00,
2013-09-21 05:45:00,33.9,31.6,29.96,NW,323,0.0,0.0,91,0.00,,,0.00,Wunderground v.1.15,2013-09-21 10:45:00,
2013-09-21 05:50:00,33.6,31.3,29.96,NW,323,0.0,0.0,91,0.00,,,0.00,Wunderground v.1.15,2013-09-21 10:50:00,
2013-09-21 05:55:00,33.5,31.2,29.96,NW,323,0.0,0.0,91,0.00,,,0.00,Wunderground v.1.15,2013-09-21 10:55:00,
2013-09-21 06:01:00,33.2,30.9,29.96,NW,323,0.0,0.0,91,0.00,,,0.00,Wunderground v.1.15,2013-09-21 11:01:00,
2013-09-21 06:06:00,33.0,30.7,29.96,NW,323,0.0,0.0,91,0.00,,,0.00,Wunderground v.1.15,2013-09-21 11:06:00,
2013-09-21 06:11:00,33.0,30.7,29.96,NW,323,0.0,0.0,91,0.00,,,0.00,Wunderground v.1.15,2013-09-21 11:11:00,
2013-09-21 06:16:00,33.3,31.0,29.96,NW,323,0.0,0.0,91,0.00,,,0.00,Wunderground v.1.15,2013-09-21 11:16:00,
2013-09-21 06:21:00,32.9,30.6,29.96,NW,323,0.0,0.0,91,0.00,,,0.00,Wunderground v.1.15,2013-09-21 11:21:00,
2013-09-21 06:26:00,32.6,30.3,29.96,NW,323,0.0,0.0,91,0.00,,,0.00,Wunderground v.1.15,2013-09-21 11:26:00,
2013-09-21 06:31:00,32.6,30.3,29.97,NW,323,0.0,1.0,91,0.00,,,0.00,Wunderground v.1.15,2013-09-21 11:31:00,
2013-09-21 06:36:00,32.6,30.3,29.97,NW,323,0.0,1.0,91,0.00,,,0.00,Wunderground v.1.15,2013-09-21 11:36:00,
2013-09-21 06:41:00,32.3,30.0,29.97,NW,323,0.0,0.0,91,0.00,,,0.00,Wunderground v.1.15,2013-09-21 11:41:00,
2013-09-21 06:47:00,32.1,29.8,29.97,NW,323,0.0,0.0,91,0.00,,,0.00,Wunderground v.1.15,2013-09-21 11:47:00,
2013-09-21 06:52:00,31.9,29.6,29.97,NW,323,0.0,0.0,91,0.00,,,0.00,Wunderground v.1.15,2013-09-21 11:52:00,
2013-09-21 06:57:00,32.1,29.8,29.97,NW,323,1.0,2.0,91,0.00,,,0.00,Wunderground v.1.15,2013-09-21 11:57:00,
2013-09-21 07:02:00,33.7,31.4,29.97,NW,323,1.0,3.0,91,0.00,,,0.00,Wunderground v.1.15,2013-09-21 12:02:00,
2013-09-21 07:07:00,34.1,31.7,29.97,NW,323,0.0,4.0,91,0.00,,,0.00,Wunderground v.1.15,2013-09-21 12:07:00,
2013-09-21 07:12:00,34.3,32.2,29.98,NW,323,0.0,2.0,92,0.00,,,0.00,Wunderground v.1.15,2013-09-21 12:12:00,
2013-09-21 07:17:00,33.7,31.4,29.98,NW,323,0.0,2.0,91,0.00,,,0.00,Wunderground v.1.15,2013-09-21 12:17:00,
2013-09-21 07:22:00,33.1,30.8,29.98,NW,323,0.0,0.0,91,0.00,,,0.00,Wunderground v.1.15,2013-09-21 12:22:00,
2013-09-21 07:27:00,32.7,30.4,29.99,NW,323,0.0,0.0,91,0.00,,,0.00,Wunderground v.1.15,2013-09-21 12:27:00,
2013-09-21 07:32:00,32.3,30.0,29.99,NW,323,0.0,0.0,91,0.00,,,0.00,Wunderground v.1.15,2013-09-21 12:32:00,
2013-09-21 07:37:00,32.1,29.8,29.99,NW,323,0.0,0.0,91,0.00,,,0.00,Wunderground v.1.15,2013-09-21 12:37:00,
2013-09-21 07:42:00,32.4,30.1,29.99,NW,323,0.0,0.0,91,0.00,,,0.00,Wunderground v.1.15,2013-09-21 12:42:00,
2013-09-21 07:47:00,33.0,30.7,29.99,NW,323,0.0,0.0,91,0.00,,,0.00,Wunderground v.1.15,2013-09-21 12:47:00,
2013-09-21 07:52:00,33.5,31.4,29.99,NW,323,0.0,0.0,92,0.00,,,0.00,Wunderground v.1.15,2013-09-21 12:52:00,
2013-09-21 07:57:00,34.5,32.4,29.99,NW,323,0.0,0.0,92,0.00,,,0.00,Wunderground v.1.15,2013-09-21 12:57:00,
2013-09-21 08:02:00,36.4,34.3,29.99,NW,323,0.0,0.0,92,0.00,,,0.00,Wunderground v.1.15,2013-09-21 13:02:00,
2013-09-21 08:07:00,37.8,35.7,29.99,NW,323,0.0,0.0,92,0.00,,,0.00,Wunderground v.1.15,2013-09-21 13:07:00,
2013-09-21 08:12:00,39.0,36.9,29.99,NW,323,0.0,0.0,92,0.00,,,0.00,Wunderground v.1.15,2013-09-21 13:12:00,
2013-09-21 08:17:00,39.0,36.9,29.99,NW,323,0.0,0.0,92,0.00,,,0.00,Wunderground v.1.15,2013-09-21 13:17:00,
2013-09-21 08:22:00,38.8,36.7,29.99,NW,323,0.0,0.0,92,0.00,,,0.00,Wunderground v.1.15,2013-09-21 13:22:00,
2013-09-21 08:27:00,39.6,37.5,29.99,NW,323,0.0,0.0,92,0.00,,,0.00,Wunderground v.1.15,2013-09-21 13:27:00,
2013-09-21 08:32:00,40.4,38.3,29.99,NW,323,0.0,0.0,92,0.00,,,0.00,Wunderground v.1.15,2013-09-21 13:32:00,
2013-09-21 08:37:00,41.9,39.7,29.99,NW,323,0.0,0.0,92,0.00,,,0.00,Wunderground v.1.15,2013-09-21 13:37:00,
2013-09-21 08:43:00,43.5,41.6,30.00,NW,323,0.0,0.0,93,0.00,,,0.00,Wunderground v.1.15,2013-09-21 13:43:00,
2013-09-21 08:48:00,44.8,42.9,30.00,NW,323,0.0,0.0,93,0.00,,,0.00,Wunderground v.1.15,2013-09-21 13:48:00,
2013-09-21 08:53:00,46.0,44.1,30.00,NW,323,0.0,0.0,93,0.00,,,0.00,Wunderground v.1.15,2013-09-21 13:53:00,
2013-09-21 08:58:00,46.7,44.8,30.00,NW,323,0.0,0.0,93,0.00,,,0.00,Wunderground v.1.15,2013-09-21 13:58:00,
2013-09-21 09:03:00,46.7,44.5,30.00,NW,323,0.0,0.0,92,0.00,,,0.00,Wunderground v.1.15,2013-09-21 14:03:00,
2013-09-21 09:08:00,47.2,45.0,30.00,NW,323,0.0,0.0,92,0.00,,,0.00,Wunderground v.1.15,2013-09-21 14:08:00,
2013-09-21 09:13:00,47.9,45.7,30.00,NW,323,0.0,0.0,92,0.00,,,0.00,Wunderground v.1.15,2013-09-21 14:13:00,
2013-09-21 09:18:00,48.6,46.4,30.00,NW,323,0.0,0.0,92,0.00,,,0.00,Wunderground v.1.15,2013-09-21 14:18:00,
2013-09-21 09:23:00,49.6,47.1,30.00,NW,323,0.0,0.0,91,0.00,,,0.00,Wunderground v.1.15,2013-09-21 14:23:00,
2013-09-21 09:28:00,50.6,48.1,29.99,NW,323,0.0,1.0,91,0.00,,,0.00,Wunderground v.1.15,2013-09-21 14:28:00,
2013-09-21 09:33:00,51.4,48.3,29.99,NW,323,0.0,0.0,89,0.00,,,0.00,Wunderground v.1.15,2013-09-21 14:33:00,
2013-09-21 09:38:00,52.2,49.1,29.99,NW,323,0.0,0.0,89,0.00,,,0.00,Wunderground v.1.15,2013-09-21 14:38:00,
2013-09-21 09:43:00,53.4,49.6,29.99,NW,323,0.0,0.0,87,0.00,,,0.00,Wunderground v.1.15,2013-09-21 14:43:00,
2013-09-21 09:48:00,53.7,48.7,30.00,NW,323,0.0,0.0,83,0.00,,,0.00,Wunderground v.1.15,2013-09-21 14:48:00,
2013-09-21 09:53:00,54.0,48.0,29.99,NW,323,0.0,0.0,80,0.00,,,0.00,Wunderground v.1.15,2013-09-21 14:53:00,
2013-09-21 09:58:00,54.6,47.9,29.99,NW,323,0.0,0.0,78,0.00,,,0.00,Wunderground v.1.15,2013-09-21 14:58:00,
2013-09-21 10:03:00,55.5,47.7,29.99,NW,323,0.0,0.0,75,0.00,,,0.00,Wunderground v.1.15,2013-09-21 15:03:00,
2013-09-21 10:08:00,56.1,47.2,29.99,NW,323,0.0,0.0,72,0.00,,,0.00,Wunderground v.1.15,2013-09-21 15:08:00,
2013-09-21 10:13:00,56.5,46.4,29.99,NW,323,0.0,0.0,69,0.00,,,0.00,Wunderground v.1.15,2013-09-21 15:13:00,
2013-09-21 10:18:00,57.3,47.2,29.99,NW,323,0.0,0.0,69,0.00,,,0.00,Wunderground v.1.15,2013-09-21 15:18:00,
2013-09-21 10:23:00,58.2,46.5,29.99,NW,323,0.0,0.0,65,0.00,,,0.00,Wunderground v.1.15,2013-09-21 15:23:00,
2013-09-21 10:28:00,59.0,46.4,29.99,NW,323,0.0,0.0,63,0.00,,,0.00,Wunderground v.1.15,2013-09-21 15:28:00,
2013-09-21 10:34:00,59.1,46.1,29.99,NW,323,0.0,0.0,62,0.00,,,0.00,Wunderground v.1.15,2013-09-21 15:34:00,
2013-09-21 10:39:00,58.9,45.5,29.99,NW,323,0.0,0.0,61,0.00,,,0.00,Wunderground v.1.15,2013-09-21 15:39:00,
2013-09-21 10:44:00,59.0,46.0,29.99,NW,323,0.0,0.0,62,0.00,,,0.00,Wunderground v.1.15,2013-09-21 15:44:00,
2013-09-21 10:49:00,59.1,45.2,29.99,NW,323,0.0,0.0,60,0.00,,,0.00,Wunderground v.1.15,2013-09-21 15:49:00,
2013-09-21 10:54:00,59.4,45.5,29.99,NW,323,0.0,0.0,60,0.00,,,0.00,Wunderground v.1.15,2013-09-21 15:54:00,
2013-09-21 10:59:00,59.5,45.6,29.98,NW,313,0.0,6.0,60,0.00,,,0.00,Wunderground v.1.15,2013-09-21 15:59:00,
2013-09-21 11:04:00,59.7,45.3,29.98,WNW,289,0.0,7.0,59,0.00,,,0.00,Wunderground v.1.15,2013-09-21 16:04:00,
2013-09-21 11:09:00,59.8,45.4,29.98,WNW,289,0.0,7.0,59,0.00,,,0.00,Wunderground v.1.15,2013-09-21 16:09:00,
2013-09-21 11:14:00,60.1,45.3,29.98,WNW,288,3.0,4.0,58,0.00,,,0.00,Wunderground v.1.15,2013-09-21 16:14:00,
2013-09-21 11:19:00,60.3,45.0,29.98,WNW,290,0.0,4.0,57,0.00,,,0.00,Wunderground v.1.15,2013-09-21 16:19:00,
2013-09-21 11:24:00,60.7,45.4,29.98,WNW,290,3.0,4.0,57,0.00,,,0.00,Wunderground v.1.15,2013-09-21 16:24:00,
2013-09-21 11:29:00,60.8,44.5,29.98,WNW,290,0.0,5.0,55,0.00,,,0.00,Wunderground v.1.15,2013-09-21 16:29:00,
2013-09-21 11:34:00,61.6,45.7,29.98,WNW,290,2.0,2.0,56,0.00,,,0.00,Wunderground v.1.15,2013-09-21 16:34:00,
2013-09-21 11:39:00,61.7,44.9,29.98,West,281,2.0,4.0,54,0.00,,,0.00,Wunderground v.1.15,2013-09-21 16:39:00,
2013-09-21 11:44:00,61.5,44.2,29.98,WSW,242,2.0,7.0,53,0.00,,,0.00,Wunderground v.1.15,2013-09-21 16:44:00,
2013-09-21 11:49:00,61.7,43.9,29.98,NW,307,3.0,9.0,52,0.00,,,0.00,Wunderground v.1.15,2013-09-21 16:49:00,
2013-09-21 11:54:00,62.2,45.8,29.98,NW,308,0.0,4.0,55,0.00,,,0.00,Wunderground v.1.15,2013-09-21 16:54:00,
2013-09-21 11:59:00,62.7,44.8,29.97,NW,308,0.0,4.0,52,0.00,,,0.00,Wunderground v.1.15,2013-09-21 16:59:00,
2013-09-21 12:04:00,63.2,45.3,29.97,WNW,300,3.0,7.0,52,0.00,,,0.00,Wunderground v.1.15,2013-09-21 17:04:00,
2013-09-21 12:09:00,63.2,44.2,29.97,WNW,300,0.0,7.0,50,0.00,,,0.00,Wunderground v.1.15,2013-09-21 17:09:00,
2013-09-21 12:14:00,63.6,45.6,29.97,WNW,298,3.0,7.0,52,0.00,,,0.00,Wunderground v.1.15,2013-09-21 17:14:00,
2013-09-21 12:19:00,63.8,45.8,29.97,West,278,4.0,7.0,52,0.00,,,0.00,Wunderground v.1.15,2013-09-21 17:19:00,
2013-09-21 12:24:00,64.0,46.0,29.96,West,277,3.0,6.0,52,0.00,,,0.00,Wunderground v.1.15,2013-09-21 17:24:00,
2013-09-21 12:29:00,64.3,45.3,29.96,West,276,2.0,6.0,50,0.00,,,0.00,Wunderground v.1.15,2013-09-21 17:29:00,
2013-09-21 12:34:00,64.4,45.9,29.96,West,277,0.0,3.0,51,0.00,,,0.00,Wunderground v.1.15,2013-09-21 17:34:00,
2013-09-21 12:39:00,64.9,45.3,29.96,WSW,244,1.0,7.0,49,0.00,,,0.00,Wunderground v.1.15,2013-09-21 17:39:00,
2013-09-21 12:44:00,64.8,44.6,29.96,WSW,244,1.0,2.0,48,0.00,,,0.00,Wunderground v.1.15,2013-09-21 17:44:00,
2013-09-21 12:49:00,65.2,45.5,29.96,WSW,244,0.0,4.0,49,0.00,,,0.00,Wunderground v.1.15,2013-09-21 17:49:00,
2013-09-21 12:54:00,65.5,44.2,29.95,WSW,247,0.0,6.0,46,0.00,,,0.00,Wunderground v.1.15,2013-09-21 17:54:00,
2013-09-21 13:00:00,65.8,44.4,29.95,WSW,246,0.0,6.0,46,0.00,,,0.00,Wunderground v.1.15,2013-09-21 18:00:00,
2013-09-21 13:05:00,65.8,45.0,29.95,WSW,245,5.0,7.0,47,0.00,,,0.00,Wunderground v.1.15,2013-09-21 18:05:00,
2013-09-21 13:10:00,66.0,44.6,29.94,SW,232,1.0,4.0,46,0.00,,,0.00,Wunderground v.1.15,2013-09-21 18:10:00,
2013-09-21 13:15:00,66.0,44.0,29.94,SW,232,2.0,5.0,45,0.00,,,0.00,Wunderground v.1.15,2013-09-21 18:15:00,
2013-09-21 13:21:00,66.2,44.2,29.94,SW,232,0.0,1.0,45,0.00,,,0.00,Wunderground v.1.15,2013-09-21 18:21:00,
2013-09-21 13:26:00,66.7,43.5,29.94,WSW,244,0.0,6.0,43,0.00,,,0.00,Wunderground v.1.15,2013-09-21 18:26:00,
2013-09-21 13:31:00,66.9,44.3,29.94,WSW,248,2.0,3.0,44,0.00,,,0.00,Wunderground v.1.15,2013-09-21 18:31:00,
2013-09-21 13:36:00,66.9,43.7,29.93,WSW,248,1.0,6.0,43,0.00,,,0.00,Wunderground v.1.15,2013-09-21 18:36:00,
2013-09-21 13:41:00,66.8,45.3,29.93,WSW,250,5.0,5.0,46,0.00,,,0.00,Wunderground v.1.15,2013-09-21 18:41:00,
2013-09-21 13:46:00,67.2,44.5,29.93,West,275,5.0,7.0,44,0.00,,,0.00,Wunderground v.1.15,2013-09-21 18:46:00,
2013-09-21 13:51:00,67.6,44.9,29.93,West,275,1.0,3.0,44,0.00,,,0.00,Wunderground v.1.15,2013-09-21 18:51:00,
2013-09-21 13:56:00,67.6,44.9,29.92,West,275,0.0,3.0,44,0.00,,,0.00,Wunderground v.1.15,2013-09-21 18:56:00,
2013-09-21 14:01:00,67.0,44.4,29.92,West,275,0.0,0.0,44,0.00,,,0.00,Wunderground v.1.15,2013-09-21 19:01:00,
2013-09-21 14:06:00,67.3,44.0,29.92,West,275,4.0,4.0,43,0.00,,,0.00,Wunderground v.1.15,2013-09-21 19:06:00,
2013-09-21 14:11:00,68.0,44.0,29.92,West,275,1.0,1.0,42,0.00,,,0.00,Wunderground v.1.15,2013-09-21 19:11:00,
2013-09-21 14:16:00,68.2,42.9,29.92,NW,306,5.0,9.0,40,0.00,,,0.00,Wunderground v.1.15,2013-09-21 19:16:00,
2013-09-21 14:21:00,68.5,43.2,29.91,NW,306,0.0,6.0,40,0.00,,,0.00,Wunderground v.1.15,2013-09-21 19:21:00,
2013-09-21 14:26:00,68.9,42.9,29.91,NW,306,0.0,7.0,39,0.00,,,0.00,Wunderground v.1.15,2013-09-21 19:26:00,
2013-09-21 14:31:00,69.4,46.5,29.91,NW,306,0.0,1.0,44,0.00,,,0.00,Wunderground v.1.15,2013-09-21 19:31:00,
2013-09-21 14:36:00,70.2,46.6,29.91,NW,306,4.0,4.0,43,0.00,,,0.00,Wunderground v.1.15,2013-09-21 19:36:00,
2013-09-21 14:41:00,69.4,43.4,29.90,West,269,2.0,7.0,39,0.00,,,0.00,Wunderground v.1.15,2013-09-21 19:41:00,
2013-09-21 14:46:00,69.0,44.9,29.90,West,269,0.0,7.0,42,0.00,,,0.00,Wunderground v.1.15,2013-09-21 19:46:00,
2013-09-21 14:51:00,69.5,45.4,29.90,West,270,1.0,3.0,42,0.00,,,0.00,Wunderground v.1.15,2013-09-21 19:51:00,
2013-09-21 14:56:00,69.2,44.5,29.90,West,270,0.0,4.0,41,0.00,,,0.00,Wunderground v.1.15,2013-09-21 19:56:00,
2013-09-21 15:02:00,69.2,44.5,29.90,West,269,0.0,1.0,41,0.00,,,0.00,Wunderground v.1.15,2013-09-21 20:02:00,
2013-09-21 15:07:00,69.2,43.8,29.89,West,269,3.0,4.0,40,0.00,,,0.00,Wunderground v.1.15,2013-09-21 20:07:00,
2013-09-21 15:12:00,69.0,43.7,29.89,West,270,0.0,2.0,40,0.00,,,0.00,Wunderground v.1.15,2013-09-21 20:12:00,
2013-09-21 15:17:00,69.1,43.8,29.89,West,270,0.0,3.0,40,0.00,,,0.00,Wunderground v.1.15,2013-09-21 20:17:00,
2013-09-21 15:22:00,69.4,43.4,29.89,West,269,1.0,5.0,39,0.00,,,0.00,Wunderground v.1.15,2013-09-21 20:22:00,
2013-09-21 15:27:00,69.5,43.4,29.89,West,270,1.0,6.0,39,0.00,,,0.00,Wunderground v.1.15,2013-09-21 20:27:00,
2013-09-21 15:32:00,70.1,44.6,29.88,West,270,0.0,2.0,40,0.00,,,0.00,Wunderground v.1.15,2013-09-21 20:32:00,
2013-09-21 15:37:00,70.6,44.4,29.88,West,269,6.0,6.0,39,0.00,,,0.00,Wunderground v.1.15,2013-09-21 20:37:00,
2013-09-21 15:42:00,70.9,44.0,29.88,West,270,2.0,5.0,38,0.00,,,0.00,Wunderground v.1.15,2013-09-21 20:42:00,
2013-09-21 15:47:00,70.6,43.1,29.88,West,270,0.0,5.0,37,0.00,,,0.00,Wunderground v.1.15,2013-09-21 20:47:00,
2013-09-21 15:52:00,70.6,44.4,29.87,West,269,0.0,3.0,39,0.00,,,0.00,Wunderground v.1.15,2013-09-21 20:52:00,
2013-09-21 15:57:00,70.8,43.9,29.87,West,270,0.0,3.0,38,0.00,,,0.00,Wunderground v.1.15,2013-09-21 20:57:00,
2013-09-21 16:02:00,71.3,43.0,29.87,West,269,0.0,1.0,36,0.00,,,0.00,Wunderground v.1.15,2013-09-21 21:02:00,
2013-09-21 16:07:00,71.8,43.4,29.87,West,270,0.0,1.0,36,0.00,,,0.00,Wunderground v.1.15,2013-09-21 21:07:00,
2013-09-21 16:12:00,72.1,43.7,29.86,West,269,0.0,0.0,36,0.00,,,0.00,Wunderground v.1.15,2013-09-21 21:12:00,
2013-09-21 16:17:00,72.5,44.7,29.86,West,270,2.0,3.0,37,0.00,,,0.00,Wunderground v.1.15,2013-09-21 21:17:00,
2013-09-21 16:22:00,72.8,44.3,29.86,West,270,0.0,0.0,36,0.00,,,0.00,Wunderground v.1.15,2013-09-21 21:22:00,
2013-09-21 16:27:00,72.4,43.9,29.86,West,269,0.0,9.0,36,0.00,,,0.00,Wunderground v.1.15,2013-09-21 21:27:00,
2013-09-21 16:32:00,72.5,44.0,29.86,West,270,0.0,1.0,36,0.00,,,0.00,Wunderground v.1.15,2013-09-21 21:32:00,
2013-09-21 16:37:00,72.6,43.4,29.86,West,270,0.0,1.0,35,0.00,,,0.00,Wunderground v.1.15,2013-09-21 21:37:00,
2013-09-21 16:42:00,72.7,44.9,29.86,West,269,0.0,0.0,37,0.00,,,0.00,Wunderground v.1.15,2013-09-21 21:42:00,
2013-09-21 16:47:00,72.4,43.9,29.85,ESE,103,0.0,11.0,36,0.00,,,0.00,Wunderground v.1.15,2013-09-21 21:47:00,
2013-09-21 16:52:00,71.9,44.2,29.85,ESE,103,1.0,3.0,37,0.00,,,0.00,Wunderground v.1.15,2013-09-21 21:52:00,
2013-09-21 16:57:00,71.4,43.0,29.85,ESE,103,0.0,3.0,36,0.00,,,0.00,Wunderground v.1.15,2013-09-21 21:57:00,
2013-09-21 17:02:00,71.6,43.2,29.85,ESE,102,0.0,1.0,36,0.00,,,0.00,Wunderground v.1.15,2013-09-21 22:02:00,
2013-09-21 17:07:00,72.1,44.4,29.84,ESE,103,2.0,3.0,37,0.00,,,0.00,Wunderground v.1.15,2013-09-21 22:07:00,
2013-09-21 17:13:00,71.8,43.4,29.84,ESE,103,5.0,7.0,36,0.00,,,0.00,Wunderground v.1.15,2013-09-21 22:13:00,
2013-09-21 17:17:00,71.3,44.4,29.84,ESE,103,3.0,7.0,38,0.00,,,0.00,Wunderground v.1.15,2013-09-21 22:17:00,
2013-09-21 17:23:00,71.1,42.8,29.84,ESE,104,0.0,2.0,36,0.00,,,0.00,Wunderground v.1.15,2013-09-21 22:23:00,
2013-09-21 17:28:00,71.2,43.6,29.84,ESE,102,4.0,5.0,37,0.00,,,0.00,Wunderground v.1.15,2013-09-21 22:28:00,
2013-09-21 17:33:00,70.9,44.0,29.84,East,101,1.0,5.0,38,0.00,,,0.00,Wunderground v.1.15,2013-09-21 22:33:00,
2013-09-21 17:38:00,70.6,44.4,29.84,East,101,1.0,5.0,39,0.00,,,0.00,Wunderground v.1.15,2013-09-21 22:38:00,
2013-09-21 17:43:00,70.4,43.6,29.84,East,101,1.0,6.0,38,0.00,,,0.00,Wunderground v.1.15,2013-09-21 22:43:00,
2013-09-21 17:48:00,70.1,44.6,29.84,East,101,2.0,7.0,40,0.00,,,0.00,Wunderground v.1.15,2013-09-21 22:48:00,
2013-09-21 17:53:00,70.0,44.6,29.84,East,101,1.0,3.0,40,0.00,,,0.00,Wunderground v.1.15,2013-09-21 22:53:00,
2013-09-21 17:58:00,70.0,44.6,29.84,East,101,0.0,6.0,40,0.00,,,0.00,Wunderground v.1.15,2013-09-21 22:58:00,
2013-09-21 18:03:00,70.0,43.9,29.84,East,101,1.0,2.0,39,0.00,,,0.00,Wunderground v.1.15,2013-09-21 23:03:00,
2013-09-21 18:08:00,70.0,44.6,29.84,East,101,0.0,2.0,40,0.00,,,0.00,Wunderground v.1.15,2013-09-21 23:08:00,
2013-09-21 18:13:00,69.9,45.1,29.84,East,101,0.0,0.0,41,0.00,,,0.00,Wunderground v.1.15,2013-09-21 23:13:00,
2013-09-21 18:18:00,69.6,46.1,29.84,East,101,0.0,0.0,43,0.00,,,0.00,Wunderground v.1.15,2013-09-21 23:18:00,
2013-09-21 18:23:00,69.2,46.9,29.84,East,101,0.0,0.0,45,0.00,,,0.00,Wunderground v.1.15,2013-09-21 23:23:00,
2013-09-21 18:28:00,68.8,47.2,29.84,East,101,0.0,0.0,46,0.00,,,0.00,Wunderground v.1.15,2013-09-21 23:28:00,
2013-09-21 18:33:00,68.1,47.1,29.84,East,101,0.0,2.0,47,0.00,,,0.00,Wunderground v.1.15,2013-09-21 23:33:00,
2013-09-21 18:38:00,67.3,46.9,29.84,East,101,0.0,2.0,48,0.00,,,0.00,Wunderground v.1.15,2013-09-21 23:38:00,
2013-09-21 18:43:00,66.7,48.0,29.84,East,101,0.0,0.0,51,0.00,,,0.00,Wunderground v.1.15,2013-09-21 23:43:00,
2013-09-21 18:48:00,65.8,47.7,29.84,East,101,0.0,0.0,52,0.00,,,0.00,Wunderground v.1.15,2013-09-21 23:48:00,
2013-09-21 18:53:00,64.8,46.8,29.84,East,101,0.0,2.0,52,0.00,,,0.00,Wunderground v.1.15,2013-09-21 23:53:00,
2013-09-21 18:58:00,64.1,46.6,29.84,East,101,0.0,2.0,53,0.00,,,0.00,Wunderground v.1.15,2013-09-21 23:58:00,
2013-09-21 19:03:00,63.3,45.9,29.84,East,101,0.0,0.0,53,0.00,,,0.00,Wunderground v.1.15,2013-09-22 00:03:00,
2013-09-21 19:08:00,62.3,46.4,29.84,East,101,0.0,0.0,56,0.00,,,0.00,Wunderground v.1.15,2013-09-22 00:08:00,
2013-09-21 19:13:00,61.1,46.2,29.84,East,101,0.0,0.0,58,0.00,,,0.00,Wunderground v.1.15,2013-09-22 00:13:00,
2013-09-21 19:18:00,59.8,45.9,29.84,East,101,0.0,0.0,60,0.00,,,0.00,Wunderground v.1.15,2013-09-22 00:18:00,
2013-09-21 19:23:00,59.0,45.6,29.84,East,101,0.0,0.0,61,0.00,,,0.00,Wunderground v.1.15,2013-09-22 00:23:00,
2013-09-21 19:28:00,57.5,45.0,29.84,East,101,0.0,0.0,63,0.00,,,0.00,Wunderground v.1.15,2013-09-22 00:28:00,
2013-09-21 19:33:00,56.3,44.7,29.84,East,101,0.0,0.0,65,0.00,,,0.00,Wunderground v.1.15,2013-09-22 00:33:00,
2013-09-21 19:38:00,55.6,44.4,29.84,East,101,0.0,0.0,66,0.00,,,0.00,Wunderground v.1.15,2013-09-22 00:38:00,
2013-09-21 19:43:00,54.9,44.1,29.84,East,101,0.0,0.0,67,0.00,,,0.00,Wunderground v.1.15,2013-09-22 00:43:00,
2013-09-21 19:48:00,54.4,43.7,29.84,East,101,0.0,0.0,67,0.00,,,0.00,Wunderground v.1.15,2013-09-22 00:48:00,
2013-09-21 19:53:00,53.7,43.4,29.84,East,101,0.0,0.0,68,0.00,,,0.00,Wunderground v.1.15,2013-09-22 00:53:00,
2013-09-21 19:58:00,52.8,43.3,29.84,East,101,0.0,0.0,70,0.00,,,0.00,Wunderground v.1.15,2013-09-22 00:58:00,
2013-09-21 20:04:00,52.1,43.0,29.84,East,101,0.0,0.0,71,0.00,,,0.00,Wunderground v.1.15,2013-09-22 01:04:00,
2013-09-21 20:09:00,51.7,43.3,29.84,East,101,0.0,0.0,73,0.00,,,0.00,Wunderground v.1.15,2013-09-22 01:09:00,
2013-09-21 20:14:00,51.4,43.4,29.84,East,101,0.0,0.0,74,0.00,,,0.00,Wunderground v.1.15,2013-09-22 01:14:00,
2013-09-21 20:19:00,51.1,43.1,29.85,East,101,0.0,0.0,74,0.00,,,0.00,Wunderground v.1.15,2013-09-22 01:19:00,
2013-09-21 20:24:00,50.8,43.2,29.85,East,101,0.0,0.0,75,0.00,,,0.00,Wunderground v.1.15,2013-09-22 01:24:00,
2013-09-21 20:29:00,50.6,43.0,29.85,East,101,0.0,0.0,75,0.00,,,0.00,Wunderground v.1.15,2013-09-22 01:29:00,
2013-09-21 20:34:00,50.5,42.9,29.85,East,101,0.0,0.0,75,0.00,,,0.00,Wunderground v.1.15,2013-09-22 01:34:00,
2013-09-21 20:39:00,50.4,42.8,29.85,East,101,0.0,0.0,75,0.00,,,0.00,Wunderground v.1.15,2013-09-22 01:39:00,
2013-09-21 20:44:00,50.0,42.7,29.85,East,101,0.0,0.0,76,0.00,,,0.00,Wunderground v.1.15,2013-09-22 01:44:00,
2013-09-21 20:49:00,49.5,42.2,29.85,East,101,0.0,0.0,76,0.00,,,0.00,Wunderground v.1.15,2013-09-22 01:49:00,
2013-09-21 20:54:00,49.0,42.1,29.85,East,101,0.0,0.0,77,0.00,,,0.00,Wunderground v.1.15,2013-09-22 01:54:00,
2013-09-21 20:59:00,48.9,42.3,29.85,East,101,0.0,0.0,78,0.00,,,0.00,Wunderground v.1.15,2013-09-22 01:59:00,
2013-09-21 21:04:00,48.8,42.2,29.85,East,101,0.0,0.0,78,0.00,,,0.00,Wunderground v.1.15,2013-09-22 02:04:00,
2013-09-21 21:09:00,48.7,42.1,29.85,East,101,0.0,0.0,78,0.00,,,0.00,Wunderground v.1.15,2013-09-22 02:09:00,
2013-09-21 21:14:00,48.9,42.3,29.85,East,101,0.0,0.0,78,0.00,,,0.00,Wunderground v.1.15,2013-09-22 02:14:00,
2013-09-21 21:19:00,49.5,42.9,29.85,East,101,0.0,0.0,78,0.00,,,0.00,Wunderground v.1.15,2013-09-22 02:19:00,
2013-09-21 21:24:00,49.8,42.9,29.85,East,101,2.0,2.0,77,0.00,,,0.00,Wunderground v.1.15,2013-09-22 02:24:00,
2013-09-21 21:30:00,49.8,42.9,29.85,East,101,3.0,3.0,77,0.00,,,0.00,Wunderground v.1.15,2013-09-22 02:30:00,
2013-09-21 21:35:00,49.9,42.6,29.85,East,101,2.0,5.0,76,0.00,,,0.00,Wunderground v.1.15,2013-09-22 02:35:00,
2013-09-21 21:40:00,49.9,42.6,29.85,East,101,2.0,2.0,76,0.00,,,0.00,Wunderground v.1.15,2013-09-22 02:40:00,
2013-09-21 21:45:00,49.7,42.4,29.85,East,101,3.0,3.0,76,0.00,,,0.00,Wunderground v.1.15,2013-09-22 02:45:00,
2013-09-21 21:50:00,49.6,42.7,29.85,East,101,3.0,3.0,77,0.00,,,0.00,Wunderground v.1.15,2013-09-22 02:50:00,
2013-09-21 21:55:00,49.7,42.4,29.85,East,101,2.0,5.0,76,0.00,,,0.00,Wunderground v.1.15,2013-09-22 02:55:00,
2013-09-21 22:00:00,49.5,42.2,29.85,East,101,2.0,2.0,76,0.00,,,0.00,Wunderground v.1.15,2013-09-22 03:00:00,
2013-09-21 22:05:00,49.4,42.1,29.85,East,101,3.0,3.0,76,0.00,,,0.00,Wunderground v.1.15,2013-09-22 03:05:00,
2013-09-21 22:11:00,49.8,42.5,29.85,East,101,3.0,3.0,76,0.00,,,0.00,Wunderground v.1.15,2013-09-22 03:11:00,
2013-09-21 22:16:00,50.3,42.7,29.85,East,101,2.0,3.0,75,0.00,,,0.00,Wunderground v.1.15,2013-09-22 03:16:00,
2013-09-21 22:21:00,50.4,42.4,29.85,East,101,2.0,3.0,74,0.00,,,0.00,Wunderground v.1.15,2013-09-22 03:21:00,
2013-09-21 22:26:00,50.3,42.3,29.85,East,101,1.0,3.0,74,0.00,,,0.00,Wunderground v.1.15,2013-09-22 03:26:00,
2013-09-21 22:31:00,50.1,42.1,29.85,East,101,2.0,3.0,74,0.00,,,0.00,Wunderground v.1.15,2013-09-22 03:31:00,
2013-09-21 22:36:00,50.2,42.2,29.85,East,101,2.0,5.0,74,0.00,,,0.00,Wunderground v.1.15,2013-09-22 03:36:00,
2013-09-21 22:41:00,50.4,42.4,29.85,East,101,1.0,3.0,74,0.00,,,0.00,Wunderground v.1.15,2013-09-22 03:41:00,
2013-09-21 22:46:00,50.2,42.2,29.85,East,101,2.0,3.0,74,0.00,,,0.00,Wunderground v.1.15,2013-09-22 03:46:00,
2013-09-21 22:51:00,50.0,42.4,29.85,East,101,2.0,2.0,75,0.00,,,0.00,Wunderground v.1.15,2013-09-22 03:51:00,
2013-09-21 22:56:00,50.2,42.6,29.85,East,101,2.0,5.0,75,0.00,,,0.00,Wunderground v.1.15,2013-09-22 03:56:00,
2013-09-21 23:01:00,50.3,42.7,29.85,East,101,3.0,3.0,75,0.00,,,0.00,Wunderground v.1.15,2013-09-22 04:01:00,
2013-09-21 23:02:00,50.3,42.7,29.85,East,101,2.0,3.0,75,0.00,,,0.00,Wunderground v.1.15,2013-09-22 04:02:00,
2013-09-21 23:07:00,50.3,42.7,29.85,East,101,3.0,5.0,75,0.00,,,0.00,Wunderground v.1.15,2013-09-22 04:07:00,
2013-09-21 23:12:00,50.4,42.8,29.85,East,101,2.0,3.0,75,0.00,,,0.00,Wunderground v.1.15,2013-09-22 04:12:00,
2013-09-21 23:17:00,50.6,43.0,29.85,East,101,2.0,3.0,75,0.00,,,0.00,Wunderground v.1.15,2013-09-22 04:17:00,
2013-09-21 23:22:00,50.5,42.9,29.85,East,101,3.0,5.0,75,0.00,,,0.00,Wunderground v.1.15,2013-09-22 04:22:00,
2013-09-21 23:27:00,50.3,42.7,29.85,East,101,1.0,5.0,75,0.00,,,0.00,Wunderground v.1.15,2013-09-22 04:27:00,
2013-09-21 23:32:00,50.1,42.5,29.85,East,101,3.0,5.0,75,0.00,,,0.00,Wunderground v.1.15,2013-09-22 04:32:00,
2013-09-21 23:37:00,50.3,42.7,29.85,East,101,3.0,5.0,75,0.00,,,0.00,Wunderground v.1.15,2013-09-22 04:37:00,
2013-09-21 23:42:00,50.4,42.8,29.85,East,101,3.0,5.0,75,0.00,,,0.00,Wunderground v.1.15,2013-09-22 04:42:00,
2013-09-21 23:47:00,50.3,42.7,29.85,East,101,2.0,5.0,75,0.00,,,0.00,Wunderground v.1.15,2013-09-22 04:47:00,
2013-09-21 23:52:00,50.2,42.9,29.85,East,101,2.0,5.0,76,0.00,,,0.00,Wunderground v.1.15,2013-09-22 04:52:00,
2013-09-21 23:57:00,50.2,42.9,29.85,East,101,2.0,5.0,76,0.00,,,0.00,Wunderground v.1.15,2013-09-22 04:57:00,